Time;durP1;ratioP1;P1;durP2;ratioP2;P2;SDS_P1;SDS_P2;PMS_P1;PMS_P2;Temp;Humidity;BMP_temperature;BMP_pressure;BME280_temperature;BME280_humidity;BME280_pressure;Samples;Min_cycle;Max_cycle;Signal;HPM_P1;HPM_P2
2023/01/20 00:01:08;;;;;;;36.93;18.27;;;2.30;99.90;;;;;;6126134;23;20280;-79
2023/01/20 00:03:34;;;;;;;39.50;18.10;;;2.30;99.90;;;;;;6126171;23;20146;-79
2023/01/20 00:06:01;;;;;;;42.27;18.47;;;2.40;99.90;;;;;;6125697;23;20193;-78
2023/01/20 00:08:29;;;;;;;40.53;18.93;;;2.40;99.90;;;;;;6127399;23;20172;-78
2023/01/20 00:10:55;;;;;;;40.60;18.27;;;2.50;99.90;;;;;;6127464;23;20189;-79
2023/01/20 00:13:20;;;;;;;58.77;30.03;;;2.40;99.90;;;;;;6126632;23;20146;-80
2023/01/20 00:15:47;;;;;;;123.87;58.40;;;2.60;99.90;;;;;;6125754;23;20210;-80
2023/01/20 00:18:13;;;;;;;173.63;68.60;;;2.60;99.90;;;;;;6126194;23;20146;-78
2023/01/20 00:20:38;;;;;;;67.67;32.70;;;2.70;99.90;;;;;;6125812;23;20225;-79
2023/01/20 00:23:04;;;;;;;49.30;24.43;;;2.80;99.90;;;;;;6126012;23;20165;-80
2023/01/20 00:25:34;;;;;;;52.20;22.33;;;2.70;99.90;;;;;;6126107;23;20164;-79
2023/01/20 00:28:00;;;;;;;52.27;23.47;;;2.60;99.90;;;;;;6125553;23;20209;-78
2023/01/20 00:30:25;;;;;;;49.83;20.47;;;2.60;99.90;;;;;;6125670;23;20142;-78
2023/01/20 00:32:51;;;;;;;44.93;19.17;;;2.60;99.90;;;;;;6125854;23;20152;-78
2023/01/20 00:35:17;;;;;;;38.67;18.83;;;2.60;99.90;;;;;;6101362;23;20646;-80
2023/01/20 00:37:43;;;;;;;46.43;22.43;;;2.40;99.90;;;;;;6125477;23;20469;-79
2023/01/20 00:40:09;;;;;;;50.97;20.57;;;2.40;99.90;;;;;;6125657;23;20150;-79
2023/01/20 00:42:36;;;;;;;43.07;19.00;;;2.40;99.90;;;;;;6125530;23;20158;-78
2023/01/20 00:45:02;;;;;;;48.20;22.33;;;2.30;99.90;;;;;;6101266;23;20182;-79
2023/01/20 00:47:28;;;;;;;53.40;23.13;;;2.30;99.90;;;;;;6127117;23;20138;-78
2023/01/20 00:49:53;;;;;;;55.33;21.60;;;2.30;99.90;;;;;;6125621;23;20480;-78
2023/01/20 00:52:20;;;;;;;50.73;20.13;;;2.30;99.90;;;;;;6125150;23;20236;-78
2023/01/20 00:54:45;;;;;;;57.07;21.77;;;2.40;99.90;;;;;;6126679;23;20605;-78
2023/01/20 00:57:11;;;;;;;48.83;20.73;;;2.60;99.90;;;;;;6125421;23;20149;-78
2023/01/20 00:59:37;;;;;;;49.63;21.17;;;2.60;99.90;;;;;;6125588;23;20146;-79
2023/01/20 01:02:03;;;;;;;52.13;23.23;;;2.60;99.90;;;;;;6125317;23;20224;-78
2023/01/20 01:04:28;;;;;;;59.37;22.27;;;2.40;99.90;;;;;;6127116;23;20141;-78
2023/01/20 01:06:54;;;;;;;44.93;19.80;;;2.40;99.90;;;;;;6125406;23;20150;-78
2023/01/20 01:09:20;;;;;;;57.57;23.63;;;2.20;99.90;;;;;;6124951;23;20173;-78
2023/01/20 01:11:47;;;;;;;53.63;22.13;;;2.30;99.90;;;;;;6125308;23;20146;-78
2023/01/20 01:14:12;;;;;;;48.03;19.50;;;2.20;99.90;;;;;;6127267;23;20137;-78
2023/01/20 01:16:38;;;;;;;51.10;22.37;;;2.20;99.90;;;;;;6126844;23;20504;-78
2023/01/20 01:19:04;;;;;;;48.67;23.20;;;2.20;99.90;;;;;;6126764;23;20457;-78
2023/01/20 01:21:30;;;;;;;48.50;20.00;;;2.40;99.90;;;;;;6126891;23;20150;-78
2023/01/20 01:23:56;;;;;;;47.27;19.60;;;2.40;99.90;;;;;;6124540;23;20157;-78
2023/01/20 01:26:22;;;;;;;54.53;20.33;;;2.30;99.90;;;;;;6125269;23;20153;-78
2023/01/20 01:28:49;;;;;;;49.40;21.40;;;2.30;99.90;;;;;;6127017;23;20169;-79
2023/01/20 01:31:17;;;;;;;48.97;22.83;;;2.30;99.90;;;;;;6127166;23;20135;-79
2023/01/20 01:33:43;;;;;;;46.07;18.73;;;2.20;99.90;;;;;;6125682;23;20146;-79
2023/01/20 01:36:14;;;;;;;41.80;17.37;;;1.90;99.90;;;;;;6124719;23;20465;-78
2023/01/20 01:38:39;;;;;;;47.43;18.57;;;1.80;99.90;;;;;;6124554;23;20202;-78
2023/01/20 01:41:06;;;;;;;44.10;17.83;;;1.70;99.90;;;;;;6124832;23;20569;-78
2023/01/20 01:43:35;;;;;;;46.20;18.83;;;1.80;99.90;;;;;;6124954;23;20150;-78
2023/01/20 01:46:02;;;;;;;46.03;17.20;;;2.10;99.90;;;;;;6126479;23;20142;-78
2023/01/20 01:48:36;;;;;;;44.53;18.30;;;1.90;99.90;;;;;;6100363;23;20173;-78
2023/01/20 01:51:18;;;;;;;42.90;17.60;;;2.00;99.90;;;;;;6126420;23;20149;-78
2023/01/20 01:53:52;;;;;;;45.27;18.37;;;2.00;99.90;;;;;;6124849;23;20584;-79
2023/01/20 01:56:19;;;;;;;42.27;17.17;;;2.00;99.90;;;;;;6126099;23;20157;-78
2023/01/20 01:58:48;;;;;;;44.00;18.20;;;1.70;99.90;;;;;;6101583;23;20189;-78
2023/01/20 02:01:13;;;;;;;47.07;17.60;;;1.70;99.90;;;;;;6126995;23;20237;-78
2023/01/20 02:03:54;;;;;;;39.60;17.43;;;1.90;99.90;;;;;;6126715;23;20213;-78
2023/01/20 02:06:23;;;;;;;53.23;22.23;;;2.10;99.90;;;;;;6125513;23;20207;-79
2023/01/20 02:08:49;;;;;;;44.10;18.40;;;2.10;99.90;;;;;;6124950;23;20591;-78
2023/01/20 02:11:15;;;;;;;45.23;18.20;;;2.00;99.90;;;;;;6125164;23;20273;-79
2023/01/20 02:13:41;;;;;;;44.40;18.03;;;2.10;99.90;;;;;;6125486;23;20564;-79
2023/01/20 02:16:29;;;;;;;43.30;18.63;;;2.20;99.90;;;;;;6101087;23;20176;-79
2023/01/20 02:18:54;;;;;;;45.63;19.50;;;2.00;99.90;;;;;;6125396;23;20149;-79
2023/01/20 02:22:08;;;;;;;44.23;18.73;;;2.00;99.90;;;;;;6125676;23;20675;-79
2023/01/20 02:24:35;;;;;;;44.00;18.97;;;2.10;99.90;;;;;;6106710;23;20162;-78
2023/01/20 02:27:22;;;;;;;43.17;18.73;;;2.30;99.90;;;;;;6124742;23;20646;-79
2023/01/20 02:30:18;;;;;;;36.10;14.47;;;2.30;99.90;;;;;;6126320;23;20173;-79
2023/01/20 02:32:50;;;;;;;44.07;17.80;;;2.20;99.90;;;;;;6124728;23;20138;-80
2023/01/20 02:35:37;;;;;;;43.23;18.33;;;2.20;99.90;;;;;;6126248;23;20140;-79
2023/01/20 02:38:20;;;;;;;41.00;18.93;;;2.10;99.90;;;;;;6125900;23;20209;-79
2023/01/20 02:40:55;;;;;;;36.93;15.10;;;2.10;99.90;;;;;;6124953;23;20153;-78
2023/01/20 02:43:50;;;;;;;38.57;17.77;;;2.00;99.90;;;;;;6126107;23;20193;-79
2023/01/20 02:46:27;;;;;;;41.93;17.83;;;2.00;99.90;;;;;;6124583;23;20197;-78
2023/01/20 02:49:16;;;;;;;40.97;18.20;;;2.10;99.90;;;;;;6124184;23;20212;-78
2023/01/20 02:51:52;;;;;;;47.93;18.60;;;2.20;99.90;;;;;;6124363;23;20149;-79
2023/01/20 02:54:21;;;;;;;48.20;18.73;;;2.30;99.90;;;;;;6124046;23;20504;-78
2023/01/20 02:56:48;;;;;;;46.77;19.50;;;2.10;99.90;;;;;;6124275;23;20610;-79
2023/01/20 02:59:18;;;;;;;46.30;18.07;;;1.90;99.90;;;;;;6099884;23;20150;-79
2023/01/20 03:01:52;;;;;;;43.23;18.40;;;1.80;99.90;;;;;;6126024;23;20570;-79
2023/01/20 03:04:24;;;;;;;41.03;18.60;;;1.80;99.90;;;;;;6099924;23;20169;-79
2023/01/20 03:06:53;;;;;;;39.67;18.73;;;2.00;99.90;;;;;;6125370;23;20189;-79
2023/01/20 03:09:26;;;;;;;43.67;19.77;;;2.10;99.90;;;;;;6125593;23;20241;-79
2023/01/20 03:11:59;;;;;;;48.87;19.90;;;2.30;99.90;;;;;;6124525;23;20575;-79
2023/01/20 03:14:26;;;;;;;35.90;14.90;;;2.20;99.90;;;;;;6125931;23;20205;-79
2023/01/20 03:16:51;;;;;;;41.90;19.03;;;2.10;99.90;;;;;;6124456;23;20148;-79
2023/01/20 03:19:18;;;;;;;42.40;17.77;;;2.00;99.90;;;;;;6124215;23;20146;-79
2023/01/20 03:21:44;;;;;;;34.27;15.13;;;2.00;99.90;;;;;;6125676;23;20154;-77
2023/01/20 03:24:10;;;;;;;34.33;17.40;;;1.90;99.90;;;;;;6124278;23;20154;-79
2023/01/20 03:26:37;;;;;;;41.13;17.80;;;1.80;99.90;;;;;;6124375;23;20513;-78
2023/01/20 03:29:07;;;;;;;37.73;18.67;;;1.70;99.90;;;;;;6099950;23;20177;-78
2023/01/20 03:31:48;;;;;;;37.30;17.60;;;1.60;99.90;;;;;;6125690;23;20130;-78
2023/01/20 03:34:18;;;;;;;41.20;18.70;;;1.70;99.90;;;;;;6124116;23;20149;-79
2023/01/20 03:36:44;;;;;;;40.13;18.23;;;1.80;99.90;;;;;;6124105;23;20169;-79
2023/01/20 03:39:10;;;;;;;43.90;18.10;;;1.80;99.90;;;;;;6125812;23;20143;-78
2023/01/20 03:41:59;;;;;;;46.00;19.60;;;2.00;99.90;;;;;;6124033;23;20150;-79
2023/01/20 03:44:28;;;;;;;44.90;19.83;;;2.00;99.90;;;;;;6124405;23;20188;-78
2023/01/20 03:47:19;;;;;;;43.97;19.30;;;2.00;99.90;;;;;;6124301;23;20154;-78
2023/01/20 03:50:02;;;;;;;43.20;17.57;;;1.90;99.90;;;;;;6123721;23;20612;-79
2023/01/20 03:52:47;;;;;;;50.50;19.10;;;1.70;99.90;;;;;;6125793;23;20137;-79
2023/01/20 03:55:21;;;;;;;41.83;19.07;;;1.80;99.90;;;;;;6125811;23;20184;-78
2023/01/20 03:58:02;;;;;;;44.33;18.87;;;1.90;99.90;;;;;;6100565;23;20532;-78
2023/01/20 04:00:31;;;;;;;43.57;18.30;;;2.00;99.90;;;;;;6126286;23;20162;-78
2023/01/20 04:03:00;;;;;;;45.83;19.33;;;1.90;99.90;;;;;;6126571;23;20473;-78
2023/01/20 04:05:28;;;;;;;43.03;19.50;;;2.00;99.90;;;;;;6124322;23;20156;-77
2023/01/20 04:07:58;;;;;;;41.97;19.20;;;1.90;99.90;;;;;;6126171;23;20172;-77
2023/01/20 04:10:28;;;;;;;43.07;17.93;;;1.90;99.90;;;;;;6124253;23;20637;-79
2023/01/20 04:12:54;;;;;;;39.40;19.03;;;1.90;99.90;;;;;;6124622;23;20221;-78
2023/01/20 04:15:21;;;;;;;41.63;18.00;;;2.10;99.90;;;;;;6124720;23;20675;-78
2023/01/20 04:17:46;;;;;;;34.70;17.03;;;2.20;99.90;;;;;;6125655;23;20134;-78
2023/01/20 04:20:14;;;;;;;38.43;18.13;;;2.00;99.90;;;;;;6124514;23;20161;-79
2023/01/20 04:22:40;;;;;;;35.67;17.13;;;1.90;99.90;;;;;;6126123;23;20591;-78
2023/01/20 04:25:16;;;;;;;39.80;17.80;;;1.80;99.90;;;;;;6126507;23;20138;-77
2023/01/20 04:27:41;;;;;;;39.80;17.83;;;1.90;99.90;;;;;;6126975;23;20146;-78
2023/01/20 04:30:11;;;;;;;38.50;18.40;;;2.00;99.90;;;;;;6128085;23;20134;-78
2023/01/20 04:32:36;;;;;;;42.17;17.10;;;2.10;99.90;;;;;;6126528;23;20541;-78
2023/01/20 04:35:02;;;;;;;39.73;17.03;;;2.10;99.90;;;;;;6125774;23;20146;-78
2023/01/20 04:37:28;;;;;;;42.53;17.57;;;1.90;99.90;;;;;;6125533;23;20142;-78
2023/01/20 04:39:53;;;;;;;35.63;17.27;;;2.00;99.90;;;;;;6125808;23;20177;-80
2023/01/20 04:42:19;;;;;;;36.60;16.43;;;2.10;99.90;;;;;;6125606;23;20277;-78
2023/01/20 04:44:44;;;;;;;39.13;16.43;;;1.90;99.90;;;;;;6127263;23;20146;-78
2023/01/20 04:47:10;;;;;;;35.97;15.53;;;2.00;99.90;;;;;;6126655;23;20138;-78
2023/01/20 04:49:36;;;;;;;41.20;18.00;;;1.90;99.90;;;;;;6127195;23;20161;-78
2023/01/20 04:52:01;;;;;;;44.67;18.80;;;1.80;99.90;;;;;;6125514;23;20138;-78
2023/01/20 04:54:27;;;;;;;40.40;17.00;;;1.80;99.90;;;;;;6125199;23;20486;-78
2023/01/20 04:56:52;;;;;;;37.43;18.20;;;1.80;99.90;;;;;;6126886;23;20149;-78
2023/01/20 04:59:18;;;;;;;43.27;18.03;;;1.70;99.90;;;;;;6125269;23;20145;-78
2023/01/20 05:01:44;;;;;;;42.57;17.13;;;1.70;99.90;;;;;;6100756;23;20157;-78
2023/01/20 05:04:09;;;;;;;37.80;17.50;;;1.80;99.90;;;;;;6125602;23;20138;-79
2023/01/20 05:06:35;;;;;;;41.53;18.47;;;1.90;99.90;;;;;;6127015;23;20141;-77
2023/01/20 05:09:00;;;;;;;42.80;19.20;;;1.70;99.90;;;;;;6125520;23;20173;-77
2023/01/20 05:11:26;;;;;;;42.63;17.87;;;1.70;99.90;;;;;;6126792;23;20183;-78
2023/01/20 05:13:51;;;;;;;43.10;17.87;;;1.80;99.90;;;;;;6125660;23;20509;-78
2023/01/20 05:16:24;;;;;;;44.80;19.83;;;1.90;99.90;;;;;;6125004;23;20154;-78
2023/01/20 05:18:50;;;;;;;47.53;20.20;;;2.00;99.90;;;;;;6125314;23;20195;-78
2023/01/20 05:21:16;;;;;;;33.67;16.47;;;1.80;99.90;;;;;;6125261;23;20154;-76
2023/01/20 05:23:41;;;;;;;41.27;17.50;;;1.70;99.90;;;;;;6126796;23;20141;-78
2023/01/20 05:26:07;;;;;;;38.03;17.73;;;1.60;99.90;;;;;;6125344;23;20153;-79
2023/01/20 05:28:33;;;;;;;37.80;17.37;;;1.70;99.90;;;;;;6126477;23;20664;-78
2023/01/20 05:30:59;;;;;;;43.17;18.63;;;1.80;99.90;;;;;;6124991;23;20185;-78
2023/01/20 05:33:25;;;;;;;40.77;18.70;;;1.90;99.90;;;;;;6125145;23;20588;-79
2023/01/20 05:35:51;;;;;;;47.07;19.40;;;1.90;99.90;;;;;;6126783;23;20134;-78
2023/01/20 05:38:16;;;;;;;39.57;17.93;;;2.00;99.90;;;;;;6124429;23;20153;-78
2023/01/20 05:40:42;;;;;;;43.10;18.90;;;2.10;99.90;;;;;;6125160;23;20241;-78
2023/01/20 05:43:08;;;;;;;41.10;18.70;;;2.10;99.90;;;;;;6126537;23;20150;-79
2023/01/20 05:45:34;;;;;;;34.73;17.93;;;2.10;99.90;;;;;;6124923;23;20158;-79
2023/01/20 05:48:00;;;;;;;37.63;18.40;;;2.20;99.90;;;;;;6124703;23;20177;-79
2023/01/20 05:50:28;;;;;;;43.87;19.53;;;2.00;99.90;;;;;;6125026;23;20149;-78
2023/01/20 05:52:53;;;;;;;42.17;17.83;;;1.90;99.90;;;;;;6126383;23;20154;-78
2023/01/20 05:55:20;;;;;;;39.20;18.20;;;1.80;99.90;;;;;;6126490;23;20157;-78
2023/01/20 05:57:45;;;;;;;49.87;19.40;;;1.90;99.90;;;;;;6126466;23;20141;-78
2023/01/20 06:00:13;;;;;;;40.13;17.53;;;2.00;99.90;;;;;;6124456;23;20178;-78
2023/01/20 06:02:40;;;;;;;38.77;17.23;;;2.10;99.90;;;;;;6100351;23;20142;-80
2023/01/20 06:05:07;;;;;;;34.33;16.70;;;1.90;99.90;;;;;;6125054;23;20147;-79
2023/01/20 06:07:32;;;;;;;37.90;18.03;;;1.90;99.90;;;;;;6124714;23;20165;-79
2023/01/20 06:09:58;;;;;;;36.73;16.63;;;2.00;99.90;;;;;;6126296;23;20130;-79
2023/01/20 06:12:24;;;;;;;32.60;16.37;;;2.00;99.90;;;;;;6126398;23;20138;-79
2023/01/20 06:14:49;;;;;;;38.97;17.17;;;2.30;99.90;;;;;;6126507;23;20173;-78
2023/01/20 06:17:15;;;;;;;33.13;15.83;;;2.40;99.90;;;;;;6124842;23;20150;-79
2023/01/20 06:19:41;;;;;;;31.83;14.73;;;2.40;99.90;;;;;;6126216;23;20169;-79
2023/01/20 06:22:09;;;;;;;35.43;16.80;;;2.30;99.90;;;;;;6126386;23;20189;-79
2023/01/20 06:24:34;;;;;;;30.80;14.80;;;2.10;99.90;;;;;;6124346;23;20181;-79
2023/01/20 06:27:00;;;;;;;33.20;15.53;;;2.00;99.90;;;;;;6126168;23;20133;-79
2023/01/20 06:29:25;;;;;;;37.00;15.90;;;2.00;99.90;;;;;;6125962;23;20166;-78
2023/01/20 06:31:51;;;;;;;32.87;15.37;;;2.10;99.90;;;;;;6125679;23;20565;-79
2023/01/20 06:34:17;;;;;;;36.57;16.37;;;2.10;99.90;;;;;;6124488;23;20146;-78
2023/01/20 06:36:42;;;;;;;32.27;16.80;;;1.70;99.90;;;;;;6126177;23;20134;-80
2023/01/20 06:39:09;;;;;;;33.57;15.90;;;1.80;99.90;;;;;;6126276;23;20145;-78
2023/01/20 06:41:35;;;;;;;29.83;16.07;;;1.90;99.90;;;;;;6124600;23;20150;-78
2023/01/20 06:44:04;;;;;;;36.03;16.00;;;1.90;99.90;;;;;;6100170;23;20502;-78
2023/01/20 06:46:33;;;;;;;39.70;18.23;;;1.80;99.90;;;;;;6126256;23;20212;-79
2023/01/20 06:49:06;;;;;;;35.40;17.63;;;1.90;99.90;;;;;;6124582;23;20189;-79
2023/01/20 06:51:35;;;;;;;35.40;17.53;;;1.90;99.90;;;;;;6124571;23;20150;-79
2023/01/20 06:54:01;;;;;;;33.77;16.33;;;2.00;99.90;;;;;;6124258;23;20252;-79
2023/01/20 06:56:29;;;;;;;37.27;17.90;;;2.10;99.90;;;;;;6124557;23;20546;-79
2023/01/20 06:58:56;;;;;;;37.90;18.10;;;1.90;99.90;;;;;;6124807;23;20138;-78
2023/01/20 07:01:26;;;;;;;33.87;18.00;;;2.00;99.90;;;;;;6100931;23;20141;-79
2023/01/20 07:03:56;;;;;;;39.33;18.90;;;2.10;99.90;;;;;;6124354;23;20229;-79
2023/01/20 07:06:38;;;;;;;38.80;18.50;;;2.20;99.90;;;;;;6124887;23;20536;-79
2023/01/20 07:09:09;;;;;;;37.60;18.10;;;2.40;99.90;;;;;;6124886;23;20170;-79
2023/01/20 07:11:42;;;;;;;35.70;17.97;;;2.40;99.90;;;;;;6126360;23;20134;-78
2023/01/20 07:14:30;;;;;;;34.43;16.97;;;2.30;99.90;;;;;;6124825;23;20142;-79
2023/01/20 07:16:57;;;;;;;36.57;16.47;;;2.20;99.90;;;;;;6126361;23;20580;-78
2023/01/20 07:19:32;;;;;;;32.77;16.57;;;2.20;99.90;;;;;;6126254;23;20643;-79
2023/01/20 07:22:11;;;;;;;33.67;17.23;;;2.20;99.90;;;;;;6125000;23;20480;-78
2023/01/20 07:24:44;;;;;;;26.20;12.37;;;2.30;99.90;;;;;;6124823;23;20232;-78
2023/01/20 07:27:09;;;;;;;36.33;16.97;;;2.30;99.90;;;;;;6124631;23;20147;-80
2023/01/20 07:30:02;;;;;;;32.07;16.73;;;2.40;99.90;;;;;;6124710;23;20631;-82
2023/01/20 07:32:34;;;;;;;36.03;15.97;;;2.60;99.90;;;;;;6124854;23;20153;-78
2023/01/20 07:35:03;;;;;;;35.03;15.37;;;2.60;99.90;;;;;;6126227;23;20145;-78
2023/01/20 07:37:48;;;;;;;34.83;17.07;;;2.40;99.90;;;;;;6125079;23;20511;-78
2023/01/20 07:40:17;;;;;;;29.13;14.57;;;2.50;99.90;;;;;;6126449;23;20134;-78
2023/01/20 07:42:46;;;;;;;32.20;16.23;;;2.40;99.90;;;;;;6124458;23;20212;-79
2023/01/20 07:45:16;;;;;;;29.37;15.67;;;2.40;99.90;;;;;;6126103;23;20181;-79
2023/01/20 07:47:42;;;;;;;35.07;17.70;;;2.30;99.90;;;;;;6124350;23;20186;-78
2023/01/20 07:50:18;;;;;;;32.53;16.97;;;2.40;99.90;;;;;;6124412;23;20158;-79
2023/01/20 07:53:22;;;;;;;34.07;15.03;;;2.50;99.90;;;;;;6124382;23;20232;-78
2023/01/20 07:56:09;;;;;;;36.10;16.50;;;2.40;99.90;;;;;;6124331;23;20215;-78
2023/01/20 07:58:38;;;;;;;33.67;16.87;;;2.40;99.90;;;;;;6100407;23;20193;-75
2023/01/20 08:01:15;;;;;;;33.93;15.93;;;2.30;99.90;;;;;;6126331;23;20134;-76
2023/01/20 08:03:41;;;;;;;30.30;15.47;;;2.30;99.90;;;;;;6128347;23;20142;-75
2023/01/20 08:06:10;;;;;;;29.23;14.40;;;2.20;99.90;;;;;;6127541;23;20141;-75
2023/01/20 08:08:36;;;;;;;29.73;15.57;;;2.20;99.90;;;;;;6127578;23;20163;-76
2023/01/20 08:11:03;;;;;;;33.80;15.93;;;2.30;99.90;;;;;;6124835;23;20177;-72
2023/01/20 08:13:30;;;;;;;30.10;15.97;;;2.30;99.90;;;;;;6127143;23;20131;-73
2023/01/20 08:15:59;;;;;;;29.10;15.43;;;2.20;99.90;;;;;;6127081;23;20184;-72
2023/01/20 08:18:25;;;;;;;28.17;15.53;;;2.30;99.90;;;;;;6125393;23;20154;-72
2023/01/20 08:20:50;;;;;;;30.90;15.97;;;2.30;99.90;;;;;;6125878;23;20207;-77
2023/01/20 08:23:16;;;;;;;29.93;15.80;;;2.30;99.90;;;;;;6127572;23;20146;-78
2023/01/20 08:25:42;;;;;;;29.73;14.97;;;2.40;99.90;;;;;;6127209;23;20149;-79
2023/01/20 08:28:07;;;;;;;29.30;15.13;;;2.40;99.90;;;;;;6131116;23;20628;-78
2023/01/20 08:30:34;;;;;;;22.37;13.30;;;2.50;99.90;;;;;;6127458;23;20130;-78
2023/01/20 08:32:59;;;;;;;29.30;16.23;;;2.50;99.90;;;;;;6127069;23;20498;-79
2023/01/20 08:35:25;;;;;;;30.83;14.73;;;2.50;99.90;;;;;;6127924;23;20135;-78
2023/01/20 08:37:51;;;;;;;33.00;17.23;;;2.30;99.90;;;;;;6127442;23;20134;-78
2023/01/20 08:40:16;;;;;;;26.57;13.93;;;2.40;99.90;;;;;;6127475;23;20469;-80
2023/01/20 08:42:42;;;;;;;28.83;15.10;;;2.50;99.90;;;;;;6126032;23;20584;-78
2023/01/20 08:45:08;;;;;;;31.07;15.10;;;2.60;99.90;;;;;;6126029;23;20580;-79
2023/01/20 08:47:36;;;;;;;27.47;14.47;;;2.60;99.90;;;;;;6128321;23;20137;-79
2023/01/20 08:50:04;;;;;;;26.23;14.13;;;2.50;99.90;;;;;;6128304;23;20146;-80
2023/01/20 08:52:30;;;;;;;29.10;14.63;;;2.50;99.90;;;;;;6127593;23;20142;-78
2023/01/20 08:54:57;;;;;;;32.93;14.63;;;2.60;99.90;;;;;;6124964;23;20245;-77
2023/01/20 08:57:25;;;;;;;27.90;14.73;;;2.70;99.90;;;;;;6126953;23;20494;-78
2023/01/20 08:59:51;;;;;;;26.03;13.83;;;2.70;99.90;;;;;;6126916;23;20588;-78
2023/01/20 09:02:16;;;;;;;26.00;13.50;;;2.80;99.90;;;;;;6126861;23;20169;-78
2023/01/20 09:04:42;;;;;;;24.60;13.83;;;2.80;99.90;;;;;;6126829;23;20139;-78
2023/01/20 09:07:11;;;;;;;27.27;13.33;;;2.80;99.90;;;;;;6125561;23;20150;-75
2023/01/20 09:09:37;;;;;;;25.83;14.00;;;3.00;99.90;;;;;;6126446;23;20176;-75
2023/01/20 09:12:04;;;;;;;24.27;12.87;;;3.10;99.90;;;;;;6126592;23;20557;-76
2023/01/20 09:14:29;;;;;;;24.60;12.07;;;3.00;99.90;;;;;;6126622;23;20138;-73
2023/01/20 09:16:55;;;;;;;22.70;12.83;;;2.80;99.90;;;;;;6126541;23;20592;-73
2023/01/20 09:19:21;;;;;;;24.70;12.93;;;3.00;99.90;;;;;;6126803;23;20167;-73
2023/01/20 09:21:47;;;;;;;24.20;13.63;;;2.90;99.90;;;;;;6125409;23;20150;-75
2023/01/20 09:24:13;;;;;;;21.10;11.73;;;2.80;99.90;;;;;;6127403;23;20238;-75
2023/01/20 09:26:41;;;;;;;22.93;11.83;;;3.00;99.90;;;;;;6127557;23;20161;-75
2023/01/20 09:29:10;;;;;;;26.37;13.57;;;2.80;99.90;;;;;;6125802;23;20161;-75
2023/01/20 09:31:42;;;;;;;21.97;12.83;;;2.90;99.90;;;;;;6126445;23;20142;-77
2023/01/20 09:34:08;;;;;;;24.17;12.60;;;2.90;99.90;;;;;;6126586;23;20146;-76
2023/01/20 09:36:34;;;;;;;27.03;13.13;;;3.00;99.90;;;;;;6127863;23;20130;-75
2023/01/20 09:44:56;;;;;;;24.27;11.97;;;3.00;99.90;;;;;;6126922;23;20197;-76
2023/01/20 09:47:28;;;;;;;23.80;12.80;;;3.10;99.90;;;;;;6126474;23;20481;-76
2023/01/20 09:53:16;;;;;;;19.20;10.33;;;3.30;99.90;;;;;;6126581;23;20169;-76
2023/01/20 09:55:53;;;;;;;19.70;11.57;;;3.20;99.90;;;;;;6126498;23;20165;-77
2023/01/20 09:58:25;;;;;;;24.03;12.03;;;3.40;99.90;;;;;;6125030;23;20146;-75
2023/01/20 10:01:11;;;;;;;20.17;11.07;;;3.30;99.90;;;;;;6124976;23;20161;-76
2023/01/20 10:03:49;;;;;;;22.83;11.50;;;3.30;99.90;;;;;;6126353;23;20138;-75
2023/01/20 10:06:40;;;;;;;18.53;10.20;;;3.40;99.90;;;;;;6126608;23;20166;-77
2023/01/20 10:09:26;;;;;;;18.47;10.63;;;3.50;99.90;;;;;;6126332;23;20181;-76
2023/01/20 10:12:05;;;;;;;22.30;11.00;;;3.60;99.90;;;;;;6126059;23;20240;-75
2023/01/20 10:14:40;;;;;;;21.80;10.93;;;3.50;99.90;;;;;;6126582;23;20160;-75
2023/01/20 10:17:14;;;;;;;25.73;10.43;;;3.40;99.90;;;;;;6126315;23;20134;-75
2023/01/20 10:20:03;;;;;;;19.80;11.00;;;3.40;99.90;;;;;;6126387;23;20138;-75
2023/01/20 10:22:50;;;;;;;24.53;10.97;;;3.30;99.90;;;;;;6125991;23;20572;-75
2023/01/20 10:25:29;;;;;;;21.83;11.27;;;3.40;99.90;;;;;;6125694;23;20165;-75
2023/01/20 10:28:03;;;;;;;19.53;10.37;;;3.40;99.90;;;;;;6099961;23;20158;-76
2023/01/20 10:30:35;;;;;;;21.77;10.40;;;3.30;99.90;;;;;;6100328;23;20225;-75
2023/01/20 10:33:37;;;;;;;17.63;9.33;;;3.50;99.90;;;;;;6126245;23;20233;-74
2023/01/20 10:36:03;;;;;;;24.43;9.80;;;3.50;99.90;;;;;;6125763;23;20144;-75
2023/01/20 10:38:39;;;;;;;18.83;9.53;;;3.70;99.90;;;;;;6125628;23;20209;-76
2023/01/20 10:41:14;;;;;;;18.83;9.67;;;3.60;99.90;;;;;;6126043;23;20134;-76
2023/01/20 10:43:40;;;;;;;17.23;9.53;;;3.80;99.90;;;;;;6125965;23;20133;-77
2023/01/20 10:46:42;;;;;;;16.13;9.03;;;3.90;99.90;;;;;;6125910;23;20134;-77
2023/01/20 10:49:26;;;;;;;17.20;10.10;;;3.80;99.90;;;;;;6126028;23;20215;-76
2023/01/20 10:52:04;;;;;;;20.43;9.73;;;3.80;99.90;;;;;;6099966;23;20598;-76
2023/01/20 10:54:50;;;;;;;21.73;10.23;;;3.80;99.90;;;;;;6125788;23;20587;-75
2023/01/20 10:57:16;;;;;;;16.93;9.90;;;3.70;99.90;;;;;;6125943;23;20517;-76
2023/01/20 10:59:52;;;;;;;17.73;9.03;;;3.80;99.90;;;;;;6125953;23;20137;-77
2023/01/20 11:02:33;;;;;;;15.57;8.77;;;3.80;99.90;;;;;;6125777;23;20611;-76
2023/01/20 11:05:21;;;;;;;17.37;9.10;;;4.00;99.90;;;;;;6126118;23;20154;-76
2023/01/20 11:07:49;;;;;;;12.10;8.00;;;4.10;99.90;;;;;;6124144;23;20174;-75
2023/01/20 11:10:17;;;;;;;18.63;9.70;;;4.00;99.90;;;;;;6125789;23;20134;-76
2023/01/20 11:12:46;;;;;;;18.97;7.60;;;4.10;99.90;;;;;;6125638;23;20157;-76
2023/01/20 11:15:33;;;;;;;12.13;7.77;;;4.30;99.90;;;;;;6125726;23;20145;-75
2023/01/20 11:18:13;;;;;;;13.70;7.07;;;4.20;99.90;;;;;;6125804;23;20500;-77
2023/01/20 11:20:46;;;;;;;20.10;8.43;;;4.20;99.90;;;;;;6125808;23;20209;-77
2023/01/20 11:23:46;;;;;;;14.00;7.40;;;4.40;99.90;;;;;;6125780;23;20154;-77
2023/01/20 11:26:20;;;;;;;15.53;8.13;;;4.60;99.90;;;;;;6124233;23;20173;-75
2023/01/20 11:28:59;;;;;;;14.90;8.00;;;4.80;99.90;;;;;;6125535;23;20213;-75
2023/01/20 11:31:51;;;;;;;22.47;8.00;;;5.00;99.90;;;;;;6125750;23;20188;-75
2023/01/20 11:34:34;;;;;;;16.77;8.57;;;5.10;99.90;;;;;;6125814;23;20155;-76
2023/01/20 11:37:06;;;;;;;13.37;7.50;;;5.40;99.90;;;;;;6126825;23;20604;-75
2023/01/20 11:39:44;;;;;;;18.10;7.17;;;5.50;99.90;;;;;;6127737;23;20142;-76
2023/01/20 11:42:17;;;;;;;14.57;6.17;;;5.60;99.90;;;;;;6127640;23;20141;-76
2023/01/20 11:44:51;;;;;;;12.10;6.30;;;5.70;99.90;;;;;;6127682;23;20217;-76
2023/01/20 11:47:29;;;;;;;16.60;7.47;;;5.70;99.90;;;;;;6125967;23;20146;-77
2023/01/20 11:50:07;;;;;;;14.70;7.73;;;5.70;99.90;;;;;;6125859;23;20170;-75
2023/01/20 11:52:44;;;;;;;13.13;6.80;;;5.50;99.90;;;;;;6127780;23;20138;-75
2023/01/20 11:55:16;;;;;;;20.00;6.90;;;5.60;99.90;;;;;;6127237;23;20158;-76
2023/01/20 11:58:00;;;;;;;16.20;6.93;;;5.70;99.90;;;;;;6127499;23;20150;-76
2023/01/20 12:00:41;;;;;;;15.00;6.00;;;5.90;99.90;;;;;;6127691;23;20130;-75
2023/01/20 12:03:09;;;;;;;12.00;6.50;;;5.90;99.90;;;;;;6127488;23;20148;-75
2023/01/20 12:05:42;;;;;;;27.43;8.90;;;5.60;99.90;;;;;;6101544;23;20182;-75
2023/01/20 12:08:19;;;;;;;12.47;5.80;;;5.50;99.90;;;;;;6127545;23;20162;-75
2023/01/20 12:10:46;;;;;;;14.93;6.90;;;5.50;99.90;;;;;;6101253;23;20177;-75
2023/01/20 12:13:11;;;;;;;11.97;6.70;;;5.80;99.90;;;;;;6127423;23;20645;-75
2023/01/20 12:15:43;;;;;;;19.03;7.00;;;5.90;99.90;;;;;;6127314;23;20153;-76
2023/01/20 12:18:37;;;;;;;14.70;7.17;;;5.90;99.90;;;;;;6125851;23;20146;-75
2023/01/20 12:21:08;;;;;;;13.83;7.07;;;5.80;99.90;;;;;;6126771;23;20161;-76
2023/01/20 12:23:50;;;;;;;16.80;7.07;;;5.70;99.90;;;;;;6125877;23;20589;-76
2023/01/20 12:26:21;;;;;;;12.43;7.03;;;5.80;99.90;;;;;;6127243;23;20138;-76
2023/01/20 12:29:16;;;;;;;17.57;7.37;;;5.80;99.90;;;;;;6127127;23;20158;-76
2023/01/20 12:31:43;;;;;;;14.43;6.73;;;5.90;99.90;;;;;;6126970;23;20146;-75
2023/01/20 12:34:13;;;;;;;12.77;6.10;;;6.00;99.90;;;;;;6127731;23;20587;-75
2023/01/20 12:37:06;;;;;;;12.57;5.53;;;6.00;99.90;;;;;;6127156;23;20216;-76
2023/01/20 12:39:50;;;;;;;15.67;5.60;;;6.20;99.90;;;;;;6127499;23;20143;-76
2023/01/20 12:42:52;;;;;;;15.33;5.70;;;6.40;99.90;;;;;;6126900;23;20174;-76
2023/01/20 12:45:45;;;;;;;11.10;5.60;;;6.50;99.90;;;;;;6126712;23;20188;-76
2023/01/20 12:48:24;;;;;;;15.13;5.37;;;6.50;99.90;;;;;;6100036;23;20175;-74
2023/01/20 12:51:05;;;;;;;8.60;4.93;;;6.60;99.90;;;;;;6126743;23;20163;-76
2023/01/20 12:53:58;;;;;;;12.90;5.47;;;6.40;99.90;;;;;;6126852;23;20211;-77
2023/01/20 12:56:36;;;;;;;9.90;5.00;;;6.50;99.90;;;;;;6126607;23;20158;-75
2023/01/20 12:59:34;;;;;;;11.30;5.67;;;6.40;99.90;;;;;;6100149;23;20154;-77
2023/01/20 13:02:15;;;;;;;15.47;5.20;;;6.50;99.90;;;;;;6125049;23;20464;-75
2023/01/20 13:04:49;;;;;;;11.90;5.07;;;6.60;99.90;;;;;;6127609;23;20523;-76
2023/01/20 13:07:42;;;;;;;10.53;4.37;;;6.70;99.90;;;;;;6125138;23;20180;-75
2023/01/20 13:10:33;;;;;;;9.73;4.17;;;6.50;99.90;;;;;;6126824;23;20548;-77